createdAt,value
2018-04-06T00:01:40.727Z,98439.43
2018-04-06T00:04:08.967Z,98438.52
2018-04-06T00:06:37.975Z,98444.59
2018-04-06T00:09:07.369Z,98444.12
2018-04-06T00:11:35.634Z,98436.99
2018-04-06T00:14:03.883Z,98429.20
2018-04-06T00:16:32.120Z,98441.53
2018-04-06T00:19:00.432Z,98444.63
2018-04-06T00:21:28.689Z,98434.97
2018-04-06T00:23:57.765Z,98435.84
2018-04-06T00:26:26.036Z,98434.66
2018-04-06T00:28:55.068Z,98430.37
2018-04-06T00:31:23.324Z,98434.94
2018-04-06T00:33:51.624Z,98430.95
2018-04-06T00:36:20.652Z,98434.12
2018-04-06T00:38:48.914Z,98427.59
2018-04-06T00:41:18.502Z,98431.59
2018-04-06T00:43:46.749Z,98433.88
2018-04-06T00:46:14.992Z,98435.16
2018-04-06T00:48:43.295Z,98431.46
2018-04-06T00:51:11.541Z,98429.34
2018-04-06T00:53:48.688Z,98420.55
2018-04-06T00:56:17.688Z,98418.17
2018-04-06T00:58:45.937Z,98413.20
2018-04-06T01:01:14.174Z,98423.75
2018-04-06T01:03:43.198Z,98424.61
2018-04-06T01:06:11.433Z,98420.39
2018-04-06T01:08:39.676Z,98418.20
2018-04-06T01:11:07.896Z,98421.74
2018-04-06T01:13:36.136Z,98427.95
2018-04-06T01:16:05.140Z,98438.05
2018-04-06T01:18:34.351Z,98421.45
2018-04-06T01:21:03.341Z,98418.42
2018-04-06T01:23:31.605Z,98419.20
2018-04-06T01:25:59.860Z,98420.89
2018-04-06T01:28:28.112Z,98421.88
2018-04-06T01:30:56.370Z,98418.28
2018-04-06T01:33:24.625Z,98417.59
2018-04-06T01:35:53.658Z,98411.88
2018-04-06T01:38:22.652Z,98419.20
2018-04-06T01:40:50.919Z,98418.73
2018-04-06T01:43:19.157Z,98414.67
2018-04-06T01:45:48.165Z,98408.56
2018-04-06T01:48:16.404Z,98420.30
2018-04-06T01:50:44.653Z,98415.61
2018-04-06T01:53:12.896Z,98412.56
2018-04-06T01:55:41.149Z,98409.32
2018-04-06T01:58:10.142Z,98410.56
2018-04-06T02:00:38.421Z,98405.33
2018-04-06T02:03:06.652Z,98402.70
2018-04-06T02:05:34.892Z,98405.42
2018-04-06T02:08:03.128Z,98399.42
2018-04-06T02:10:31.386Z,98405.84
2018-04-06T02:12:59.621Z,98405.83
2018-04-06T02:15:27.894Z,98403.31
2018-04-06T02:17:56.125Z,98406.77
2018-04-06T02:20:24.451Z,98401.09
2018-04-06T02:22:53.440Z,98403.83
2018-04-06T02:25:21.685Z,98413.84
2018-04-06T02:27:49.920Z,98411.27
2018-04-06T02:30:18.177Z,98412.50
2018-04-06T02:32:46.495Z,98412.98
2018-04-06T02:35:16.102Z,98418.41
2018-04-06T02:37:44.341Z,98408.30
2018-04-06T02:40:12.586Z,98407.37
2018-04-06T02:42:40.826Z,98408.77
2018-04-06T02:45:09.090Z,98407.70
2018-04-06T02:47:38.084Z,98405.19
2018-04-06T02:50:06.335Z,98408.61
2018-04-06T02:52:34.582Z,98405.41
2018-04-06T02:55:02.808Z,98408.25
2018-04-06T02:57:31.058Z,98406.74
2018-04-06T03:00:00.093Z,98408.72
2018-04-06T03:02:28.381Z,98404.34
2018-04-06T03:04:56.633Z,98402.83
2018-04-06T03:07:25.872Z,98400.78
2018-04-06T03:09:54.107Z,98392.53
2018-04-06T03:12:22.380Z,98400.18
2018-04-06T03:14:50.626Z,98393.08
2018-04-06T03:17:19.630Z,98396.44
2018-04-06T03:19:47.877Z,98392.80
2018-04-06T03:22:16.130Z,98394.50
2018-04-06T03:24:44.353Z,98393.27
2018-04-06T03:27:12.616Z,98386.65
2018-04-06T03:29:40.854Z,98390.12
2018-04-06T03:32:09.865Z,98389.84
2018-04-06T03:34:38.864Z,98397.52
2018-04-06T03:37:07.885Z,98391.06
2018-04-06T03:39:37.241Z,98393.78
2018-04-06T03:42:06.277Z,98395.39
2018-04-06T03:44:34.508Z,98405.04
2018-04-06T03:47:03.593Z,98389.09
2018-04-06T03:49:32.603Z,98384.77
2018-04-06T03:52:01.633Z,98391.98
2018-04-06T03:54:29.873Z,98380.53
2018-04-06T03:56:58.761Z,98385.05
2018-04-06T03:59:27.033Z,98379.40
2018-04-06T04:01:55.313Z,98386.28
2018-04-06T04:04:23.598Z,98383.30
2018-04-06T04:06:51.884Z,98383.77
2018-04-06T04:09:20.119Z,98383.56
2018-04-06T04:11:48.381Z,98374.86
2018-04-06T04:14:16.621Z,98382.60
2018-04-06T04:16:45.608Z,98379.45
2018-04-06T04:19:13.865Z,98378.18
2018-04-06T04:21:42.118Z,98378.70
2018-04-06T04:24:10.348Z,98382.12
2018-04-06T04:26:38.601Z,98376.64
2018-04-06T04:29:06.845Z,98379.83
2018-04-06T04:31:35.072Z,98378.19
2018-04-06T04:34:03.325Z,98375.08
2018-04-06T04:36:31.601Z,98382.92
2018-04-06T04:38:59.885Z,98381.70
2018-04-06T04:41:28.127Z,98379.45
2018-04-06T04:43:57.157Z,98376.56
2018-04-06T04:46:25.450Z,98376.20
2018-04-06T04:48:53.721Z,98368.86
2018-04-06T04:51:22.001Z,98370.87
2018-04-06T04:53:50.997Z,98371.45
2018-04-06T04:56:20.004Z,98368.47
2018-04-06T04:58:49.039Z,98365.61
2018-04-06T05:01:17.275Z,98368.50
2018-04-06T05:03:45.536Z,98366.37
2018-04-06T05:06:13.791Z,98366.97
2018-04-06T05:08:42.047Z,98367.25
2018-04-06T05:11:10.282Z,98361.29
2018-04-06T05:13:38.547Z,98365.22
2018-04-06T05:16:06.862Z,98370.36
2018-04-06T05:18:35.131Z,98367.02
2018-04-06T05:21:04.120Z,98371.17
2018-04-06T05:23:33.224Z,98369.34
2018-04-06T05:26:01.525Z,98366.00
2018-04-06T05:28:31.345Z,98358.73
2018-04-06T05:31:00.361Z,98367.13
2018-04-06T05:33:29.396Z,98364.36
2018-04-06T05:35:57.676Z,98367.37
2018-04-06T05:38:25.953Z,98375.72
2018-04-06T05:40:55.164Z,98370.00
2018-04-06T05:43:23.399Z,98374.77
2018-04-06T05:45:51.732Z,98371.33
2018-04-06T05:48:19.972Z,98376.23
2018-04-06T05:50:48.234Z,98375.83
2018-04-06T05:53:17.238Z,98379.38
2018-04-06T05:55:45.714Z,98373.28
2018-04-06T05:58:13.974Z,98378.44
2018-04-06T06:00:42.297Z,98377.03
2018-04-06T06:03:10.539Z,98372.41
2018-04-06T06:05:38.792Z,98372.94
2018-04-06T06:08:07.036Z,98372.66
2018-04-06T06:10:35.281Z,98367.30
2018-04-06T06:13:04.365Z,98377.77
2018-04-06T06:15:32.639Z,98372.98
2018-04-06T06:18:01.630Z,98375.19
2018-04-06T06:20:29.884Z,98368.36
2018-04-06T06:22:58.901Z,98373.92
2018-04-06T06:25:27.202Z,98373.61
2018-04-06T06:27:55.456Z,98374.52
2018-04-06T06:30:23.717Z,98375.81
2018-04-06T06:32:51.970Z,98385.11
2018-04-06T06:35:20.281Z,98372.53
2018-04-06T06:37:49.285Z,98380.30
2018-04-06T06:40:18.392Z,98376.14
2018-04-06T06:42:47.388Z,98373.62
2018-04-06T06:45:15.702Z,98384.70
2018-04-06T06:47:43.942Z,98379.77
2018-04-06T06:50:12.199Z,98374.45
2018-04-06T06:52:40.432Z,98378.42
2018-04-06T06:55:08.676Z,98373.64
2018-04-06T06:57:36.960Z,98373.55
2018-04-06T07:00:05.207Z,98375.67
2018-04-06T07:02:33.460Z,98379.03
2018-04-06T07:05:01.704Z,98372.95
2018-04-06T07:07:30.718Z,98373.66
2018-04-06T07:09:59.833Z,98374.84
2018-04-06T07:12:28.887Z,98384.56
2018-04-06T07:14:57.188Z,98372.14
2018-04-06T07:17:25.469Z,98376.76
2018-04-06T07:19:53.979Z,98373.63
2018-04-06T07:22:22.994Z,98363.69
2018-04-06T07:24:52.016Z,98372.08
2018-04-06T07:27:21.029Z,98366.48
2018-04-06T07:29:49.291Z,98364.66
2018-04-06T07:32:17.575Z,98365.97
2018-04-06T07:34:45.829Z,98362.14
2018-04-06T07:37:14.088Z,98358.29
2018-04-06T07:39:42.345Z,98353.34
2018-04-06T07:42:10.579Z,98361.22
2018-04-06T07:44:38.821Z,98366.05
2018-04-06T07:47:07.097Z,98372.41
2018-04-06T07:49:35.339Z,98361.73
2018-04-06T07:52:03.601Z,98368.78
2018-04-06T07:54:32.611Z,98362.80
2018-04-06T07:57:01.710Z,98358.48
2018-04-06T07:59:29.961Z,98348.31
2018-04-06T08:01:58.220Z,98348.02
2018-04-06T08:04:26.481Z,98350.67
2018-04-06T08:06:56.265Z,98336.23
2018-04-06T08:09:24.649Z,98342.42
2018-04-06T08:11:52.992Z,98341.42
2018-04-06T08:14:22.002Z,98335.09
2018-04-06T08:16:50.232Z,98334.34
2018-04-06T08:19:18.477Z,98329.70
2018-04-06T08:21:47.472Z,98324.49
2018-04-06T08:24:16.581Z,98326.98
2018-04-06T08:26:45.592Z,98317.69
2018-04-06T08:29:14.629Z,98316.44
2018-04-06T08:31:42.861Z,98312.97
2018-04-06T08:34:11.182Z,98317.47
2018-04-06T08:36:40.172Z,98313.48
2018-04-06T08:39:09.191Z,98308.63
2018-04-06T08:41:38.187Z,98308.60
2018-04-06T08:44:07.994Z,98304.16
2018-04-06T08:46:36.377Z,98306.53
2018-04-06T08:49:04.632Z,98305.60
2018-04-06T08:51:32.873Z,98310.31
2018-04-06T08:54:01.141Z,98299.99
2018-04-06T08:56:29.392Z,98310.28
2018-04-06T08:58:57.674Z,98294.97
2018-04-06T09:01:26.107Z,98299.20
2018-04-06T09:03:54.477Z,98293.45
2018-04-06T09:06:22.777Z,98294.31
2018-04-06T09:08:51.020Z,98284.98
2018-04-06T09:11:20.038Z,98284.21
2018-04-06T09:13:48.324Z,98285.16
2018-04-06T09:16:17.330Z,98282.28
2018-04-06T09:18:46.373Z,98277.30
2018-04-06T09:21:14.659Z,98276.53
2018-04-06T09:23:42.912Z,98274.25
2018-04-06T09:26:11.216Z,98270.45
2018-04-06T09:28:40.243Z,98274.62
2018-04-06T09:31:08.474Z,98269.28
2018-04-06T09:33:36.749Z,98270.63
2018-04-06T09:36:05.090Z,98263.91
2018-04-06T09:38:33.390Z,98259.78
2018-04-06T09:41:02.361Z,98260.82
2018-04-06T09:43:31.385Z,98258.47
2018-04-06T09:46:00.428Z,98250.91
2018-04-06T09:48:28.688Z,98251.44
2018-04-06T09:50:57.804Z,98250.05
2018-04-06T09:53:26.072Z,98245.62
2018-04-06T09:55:54.348Z,98250.33
2018-04-06T09:58:23.366Z,98250.39
2018-04-06T10:00:58.014Z,98248.22
2018-04-06T10:03:26.290Z,98244.09
2018-04-06T10:05:55.380Z,98232.23
2018-04-06T10:08:23.735Z,98237.95
2018-04-06T10:10:52.010Z,98227.19
2018-04-06T10:13:20.249Z,98222.34
2018-04-06T10:15:48.526Z,98214.78
2018-04-06T10:18:16.771Z,98209.24
2018-04-06T10:20:45.028Z,98214.16
2018-04-06T10:23:14.417Z,98204.02
2018-04-06T10:25:42.674Z,98205.19
2018-04-06T10:28:10.912Z,98190.41
2018-04-06T10:30:39.172Z,98196.52
2018-04-06T10:33:07.505Z,98199.25
2018-04-06T10:35:36.541Z,98194.24
2018-04-06T10:38:04.774Z,98186.70
2018-04-06T10:40:33.115Z,98183.41
2018-04-06T10:43:01.323Z,98183.62
2018-04-06T10:45:29.603Z,98171.78
2018-04-06T10:47:57.897Z,98178.16
2018-04-06T10:50:26.195Z,98168.06
2018-04-06T10:52:54.459Z,98169.20
2018-04-06T10:55:22.722Z,98170.99
2018-04-06T10:57:50.981Z,98170.89
2018-04-06T11:00:20.210Z,98161.36
2018-04-06T11:02:48.485Z,98159.80
2018-04-06T11:05:16.738Z,98160.91
2018-04-06T11:07:45.018Z,98158.59
2018-04-06T11:10:13.307Z,98157.12
2018-04-06T11:12:41.532Z,98150.45
2018-04-06T11:15:10.532Z,98144.17
2018-04-06T11:17:38.806Z,98149.56
2018-04-06T11:20:08.175Z,98148.13
2018-04-06T11:22:37.240Z,98145.39
2018-04-06T11:25:05.475Z,98148.95
2018-04-06T11:27:34.527Z,98149.45
2018-04-06T11:30:02.787Z,98145.55
2018-04-06T11:32:31.080Z,98151.27
2018-04-06T11:35:00.160Z,98136.58
2018-04-06T11:37:28.465Z,98130.26
2018-04-06T11:39:56.718Z,98134.30
2018-04-06T11:42:25.018Z,98119.49
2018-04-06T11:44:53.293Z,98120.66
2018-04-06T11:47:21.545Z,98114.70
2018-04-06T11:49:49.784Z,98121.20
2018-04-06T11:52:18.065Z,98109.20
2018-04-06T11:54:46.306Z,98103.41
2018-04-06T11:57:14.578Z,98107.61
2018-04-06T11:59:43.625Z,98103.58
2018-04-06T12:02:12.611Z,98097.80
2018-04-06T12:04:40.843Z,98101.70
2018-04-06T12:07:09.115Z,98098.30
2018-04-06T12:09:37.358Z,98090.33
2018-04-06T12:12:05.619Z,98083.55
2018-04-06T12:14:34.008Z,98077.45
2018-04-06T12:17:02.262Z,98073.42
2018-04-06T12:19:30.508Z,98069.92
2018-04-06T12:21:59.544Z,98067.94
2018-04-06T12:24:27.804Z,98063.89
2018-04-06T12:26:56.865Z,98060.42
2018-04-06T12:29:25.177Z,98054.25
2018-04-06T12:31:54.213Z,98068.33
2018-04-06T12:34:22.509Z,98046.35
2018-04-06T12:36:50.736Z,98052.76
2018-04-06T12:39:18.994Z,98052.36
2018-04-06T12:41:47.247Z,98041.79
2018-04-06T12:44:15.558Z,98045.80
2018-04-06T12:46:44.556Z,98044.47
2018-04-06T12:49:13.585Z,98038.16
2018-04-06T12:51:42.599Z,98037.90
2018-04-06T12:54:10.854Z,98032.41
2018-04-06T12:56:39.864Z,98030.24
2018-04-06T12:59:08.897Z,98027.03
2018-04-06T13:01:37.133Z,98020.60
2018-04-06T13:04:05.426Z,98027.44
2018-04-06T13:06:33.682Z,98019.93
2018-04-06T13:09:01.966Z,98018.87
2018-04-06T13:11:30.210Z,98013.36
2018-04-06T13:13:59.656Z,98016.97
2018-04-06T13:16:28.042Z,98009.06
2018-04-06T13:18:56.313Z,98011.02
2018-04-06T13:21:25.357Z,98002.98
2018-04-06T13:23:53.626Z,98005.55
2018-04-06T13:26:21.854Z,97985.29
2018-04-06T13:28:50.111Z,97992.50
2018-04-06T13:31:18.357Z,97984.37
2018-04-06T13:33:46.601Z,97988.72
2018-04-06T13:36:14.846Z,97988.57
2018-04-06T13:38:43.881Z,97985.87
2018-04-06T13:41:12.121Z,97983.59
2018-04-06T13:43:40.357Z,97977.05
2018-04-06T13:46:08.623Z,97970.44
2018-04-06T13:48:37.689Z,97976.20
2018-04-06T13:51:05.946Z,97972.45
2018-04-06T13:53:34.193Z,97971.55
2018-04-06T13:56:03.220Z,97974.27
2018-04-06T13:58:32.210Z,97959.23
2018-04-06T14:01:01.326Z,97959.13
2018-04-06T14:03:29.632Z,97956.34
2018-04-06T14:05:57.905Z,97949.72
2018-04-06T14:08:27.954Z,97948.84
2018-04-06T14:10:56.226Z,97946.88
2018-04-06T14:13:25.256Z,97951.71
2018-04-06T14:15:53.589Z,97940.09
2018-04-06T14:18:21.843Z,97937.98
2018-04-06T14:20:50.104Z,97940.54
2018-04-06T14:23:18.340Z,97941.07
2018-04-06T14:25:46.626Z,97933.25
2018-04-06T14:28:14.861Z,97931.41
2018-04-06T14:30:43.892Z,97926.63
2018-04-06T14:33:12.161Z,97936.04
2018-04-06T14:35:41.180Z,97928.42
2018-04-06T14:38:09.437Z,97923.61
2018-04-06T14:40:37.699Z,97922.16
2018-04-06T14:43:05.940Z,97918.63
2018-04-06T14:45:34.216Z,97916.52
2018-04-06T14:48:03.226Z,97914.41
2018-04-06T14:50:32.271Z,97906.91
2018-04-06T14:53:01.354Z,97909.60
2018-04-06T14:55:30.478Z,97907.62
2018-04-06T14:57:58.740Z,97906.23
2018-04-06T15:00:27.737Z,97905.16
2018-04-06T15:02:56.052Z,97900.86
2018-04-06T15:05:24.314Z,97904.24
2018-04-06T15:07:53.358Z,97907.14
2018-04-06T15:10:21.605Z,97901.34
2018-04-06T15:12:49.873Z,97895.05
2018-04-06T15:15:18.108Z,97897.30
2018-04-06T15:17:46.373Z,97893.38
2018-04-06T15:20:14.646Z,97886.99
2018-04-06T15:22:42.929Z,97883.77
2018-04-06T15:25:11.177Z,97892.23
2018-04-06T15:27:39.433Z,97883.89
2018-04-06T15:30:07.721Z,97879.19
2018-04-06T15:32:35.974Z,97886.46
2018-04-06T15:35:04.214Z,97880.01
2018-04-06T15:37:33.241Z,97877.40
2018-04-06T15:40:01.507Z,97884.39
2018-04-06T15:42:30.686Z,97877.58
2018-04-06T15:44:58.884Z,97877.09
2018-04-06T15:47:27.146Z,97874.50
2018-04-06T15:49:55.393Z,97877.48
2018-04-06T15:52:24.418Z,97874.80
2018-04-06T15:54:52.677Z,97873.44
2018-04-06T15:57:21.701Z,97871.52
2018-04-06T15:59:49.984Z,97863.89
2018-04-06T16:02:19.012Z,97865.20
2018-04-06T16:04:47.326Z,97856.06
2018-04-06T16:07:15.610Z,97867.68
2018-04-06T16:09:43.851Z,97858.34
2018-04-06T16:12:12.873Z,97866.09
2018-04-06T16:14:41.133Z,97864.16
2018-04-06T16:17:10.276Z,97858.41
2018-04-06T16:19:38.541Z,97857.55
2018-04-06T16:22:07.580Z,97857.50
2018-04-06T16:24:35.872Z,97850.66
2018-04-06T16:27:04.864Z,97852.03
2018-04-06T16:29:33.180Z,97846.19
2018-04-06T16:32:02.197Z,97848.29
2018-04-06T16:34:30.473Z,97855.54
2018-04-06T16:36:59.501Z,97851.89
2018-04-06T16:39:27.788Z,97842.63
2018-04-06T16:41:56.016Z,97845.54
2018-04-06T16:44:24.293Z,97843.50
2018-04-06T16:46:53.306Z,97841.79
2018-04-06T16:49:22.349Z,97844.27
2018-04-06T16:51:50.596Z,97837.13
2018-04-06T16:54:19.610Z,97840.94
2018-04-06T16:56:48.632Z,97834.72
2018-04-06T16:59:17.806Z,97832.14
2018-04-06T17:01:45.914Z,97834.70
2018-04-06T17:04:15.039Z,97827.09
2018-04-06T17:06:43.308Z,97834.33
2018-04-06T17:09:12.338Z,97832.73
2018-04-06T17:11:40.588Z,97835.19
2018-04-06T17:14:08.862Z,97837.00
2018-04-06T17:16:37.140Z,97834.09
2018-04-06T17:19:05.520Z,97828.87
2018-04-06T17:21:33.765Z,97841.69
2018-04-06T17:24:03.609Z,97838.66
2018-04-06T17:26:31.858Z,97837.45
2018-04-06T17:29:00.119Z,97833.18
2018-04-06T17:31:28.354Z,97838.47
2018-04-06T17:33:57.385Z,97845.24
2018-04-06T17:36:25.625Z,97846.59
2018-04-06T17:38:53.897Z,97839.19
2018-04-06T17:41:22.988Z,97842.26
2018-04-06T17:43:51.260Z,97835.30
2018-04-06T17:46:19.531Z,97838.36
2018-04-06T17:48:47.795Z,97834.72
2018-04-06T17:51:16.056Z,97841.78
2018-04-06T17:53:44.306Z,97833.98
2018-04-06T17:56:12.577Z,97838.11
2018-04-06T17:58:41.620Z,97837.41
2018-04-06T18:01:09.892Z,97830.02
2018-04-06T18:03:38.128Z,97835.02
2018-04-06T18:06:06.386Z,97840.05
2018-04-06T18:08:34.629Z,97832.94
2018-04-06T18:11:02.880Z,97833.99
2018-04-06T18:13:31.112Z,97828.89
2018-04-06T18:16:00.889Z,97831.89
2018-04-06T18:18:29.141Z,97833.84
2018-04-06T18:20:58.160Z,97838.45
2018-04-06T18:23:26.417Z,97839.78
2018-04-06T18:25:54.669Z,97831.94
2018-04-06T18:28:22.948Z,97836.50
2018-04-06T18:30:51.219Z,97845.41
2018-04-06T18:33:19.469Z,97850.01
2018-04-06T18:35:47.739Z,97839.81
2018-04-06T18:38:16.002Z,97854.27
2018-04-06T18:40:44.331Z,97847.14
2018-04-06T18:43:12.606Z,97854.86
2018-04-06T18:45:40.856Z,97854.27
2018-04-06T18:48:09.116Z,97853.45
2018-04-06T18:50:38.128Z,97847.84
2018-04-06T18:53:06.386Z,97844.83
2018-04-06T18:55:34.644Z,97856.77
2018-04-06T18:58:02.939Z,97865.11
2018-04-06T19:00:31.206Z,97856.54
2018-04-06T19:02:59.452Z,97853.67
2018-04-06T19:05:28.514Z,97846.07
2018-04-06T19:07:56.755Z,97849.98
2018-04-06T19:10:25.782Z,97850.06
2018-04-06T19:12:54.025Z,97847.10
2018-04-06T19:15:23.046Z,97848.38
2018-04-06T19:17:51.325Z,97849.53
2018-04-06T19:20:19.608Z,97849.77
2018-04-06T19:22:47.892Z,97847.53
2018-04-06T19:25:16.139Z,97847.45
2018-04-06T19:27:44.404Z,97841.72
2018-04-06T19:30:13.413Z,97840.37
2018-04-06T19:32:42.447Z,97855.91
2018-04-06T19:35:10.694Z,97842.27
2018-04-06T19:37:38.958Z,97838.03
2018-04-06T19:40:07.210Z,97840.98
2018-04-06T19:42:35.473Z,97833.59
2018-04-06T19:45:04.499Z,97835.11
2018-04-06T19:47:32.774Z,97835.48
2018-04-06T19:50:03.778Z,97835.78
2018-04-06T19:52:32.038Z,97831.80
2018-04-06T19:55:00.293Z,97830.12
2018-04-06T19:57:28.562Z,97838.86
2018-04-06T19:59:56.808Z,97841.55
2018-04-06T20:02:25.082Z,97834.66
2018-04-06T20:04:53.313Z,97832.23
2018-04-06T20:07:21.616Z,97826.94
2018-04-06T20:09:49.875Z,97827.20
2018-04-06T20:12:18.199Z,97822.41
2018-04-06T20:14:46.466Z,97815.23
2018-04-06T20:17:14.805Z,97814.97
2018-04-06T20:19:43.845Z,97819.05
2018-04-06T20:22:12.133Z,97815.17
2018-04-06T20:24:40.394Z,97821.31
2018-04-06T20:27:08.647Z,97822.58
2018-04-06T20:29:36.882Z,97822.92
2018-04-06T20:32:05.185Z,97826.22
2018-04-06T20:34:33.422Z,97828.67
2018-04-06T20:37:01.677Z,97828.73
2018-04-06T20:39:29.921Z,97828.13
2018-04-06T20:41:58.929Z,97822.77
2018-04-06T20:44:27.954Z,97822.41
2018-04-06T20:46:56.207Z,97824.80
2018-04-06T20:49:25.278Z,97822.26
2018-04-06T20:51:53.539Z,97827.10
2018-04-06T20:54:21.795Z,97814.21
2018-04-06T20:56:50.088Z,97814.97
2018-04-06T20:59:19.184Z,97803.44
2018-04-06T21:01:47.431Z,97800.22
2018-04-06T21:04:15.872Z,97797.09
2018-04-06T21:06:44.259Z,97795.55
2018-04-06T21:09:12.525Z,97793.41
2018-04-06T21:11:40.788Z,97795.06
2018-04-06T21:14:09.059Z,97792.81
2018-04-06T21:16:38.043Z,97786.96
2018-04-06T21:19:07.052Z,97789.48
2018-04-06T21:21:36.049Z,97785.81
2018-04-06T21:24:04.312Z,97780.70
2018-04-06T21:26:32.567Z,97782.10
2018-04-06T21:29:00.809Z,97781.35
2018-04-06T21:31:29.140Z,97781.88
2018-04-06T21:33:58.129Z,97780.77
2018-04-06T21:36:27.152Z,97776.56
2018-04-06T21:38:55.393Z,97773.25
2018-04-06T21:41:23.637Z,97763.53
2018-04-06T21:43:51.886Z,97764.80
2018-04-06T21:46:20.128Z,97768.07
2018-04-06T21:48:48.401Z,97766.49
2018-04-06T21:51:16.641Z,97762.23
2018-04-06T21:53:45.731Z,97759.85
2018-04-06T21:56:13.985Z,97753.86
2018-04-06T21:58:42.283Z,97762.17
2018-04-06T22:01:10.553Z,97762.03
2018-04-06T22:03:38.818Z,97757.20
2018-04-06T22:06:07.819Z,97750.15
2018-04-06T22:08:36.889Z,97758.13
2018-04-06T22:11:05.112Z,97745.31
2018-04-06T22:13:33.400Z,97746.47
2018-04-06T22:16:02.628Z,97738.45
2018-04-06T22:18:32.560Z,97738.00
2018-04-06T22:21:01.592Z,97731.97
2018-04-06T22:23:29.897Z,97733.79
2018-04-06T22:25:58.923Z,97738.05
2018-04-06T22:28:27.164Z,97729.40
2018-04-06T22:30:55.397Z,97730.72
2018-04-06T22:33:23.633Z,97730.95
2018-04-06T22:35:51.914Z,97724.19
2018-04-06T22:38:20.928Z,97734.95
2018-04-06T22:40:49.946Z,97731.34
2018-04-06T22:43:19.320Z,97728.34
2018-04-06T22:45:47.579Z,97720.66
2018-04-06T22:48:15.850Z,97717.95
2018-04-06T22:50:44.122Z,97713.67
2018-04-06T22:53:12.416Z,97712.23
2018-04-06T22:55:40.658Z,97716.20
2018-04-06T22:58:08.894Z,97718.66
2018-04-06T23:00:37.145Z,97717.52
2018-04-06T23:03:05.398Z,97717.06
2018-04-06T23:05:33.667Z,97711.16
2018-04-06T23:08:01.905Z,97714.45
2018-04-06T23:10:30.164Z,97713.86
2018-04-06T23:12:58.421Z,97710.36
2018-04-06T23:15:26.689Z,97706.59
2018-04-06T23:17:54.937Z,97705.57
2018-04-06T23:20:23.207Z,97703.76
2018-04-06T23:22:51.438Z,97705.86
2018-04-06T23:25:19.688Z,97694.84
2018-04-06T23:27:48.687Z,97689.47
2018-04-06T23:30:16.960Z,97697.23
2018-04-06T23:32:45.971Z,97692.08
2018-04-06T23:35:14.999Z,97695.61
2018-04-06T23:37:43.269Z,97692.11
2018-04-06T23:40:12.309Z,97697.02
2018-04-06T23:42:40.539Z,97701.64
2018-04-06T23:45:09.535Z,97702.20
2018-04-06T23:47:37.814Z,97699.46
2018-04-06T23:50:06.042Z,97692.91
2018-04-06T23:52:34.293Z,97694.20
2018-04-06T23:55:02.530Z,97684.50
2018-04-06T23:57:30.804Z,97690.91
2018-04-06T23:59:59.800Z,97673.33
